sensor_id;sensor_type;location;lat;lon;timestamp;P1;durP1;ratioP1;P2;durP2;ratioP2
2049;SDS011;8478;49.208;8.806;2023-08-17T00:00:34;7.37;;;6.97;;
2049;SDS011;8478;49.208;8.806;2023-08-17T00:02:59;8.30;;;7.60;;
2049;SDS011;8478;49.208;8.806;2023-08-17T00:05:25;7.80;;;7.30;;
2049;SDS011;8478;49.208;8.806;2023-08-17T00:07:51;6.15;;;5.75;;
2049;SDS011;8478;49.208;8.806;2023-08-17T00:10:17;7.97;;;7.30;;
2049;SDS011;8478;49.208;8.806;2023-08-17T00:12:43;8.07;;;7.57;;
2049;SDS011;8478;49.208;8.806;2023-08-17T00:15:08;6.40;;;6.00;;
2049;SDS011;8478;49.208;8.806;2023-08-17T00:17:34;7.27;;;6.87;;
2049;SDS011;8478;49.208;8.806;2023-08-17T00:20:00;7.70;;;7.20;;
2049;SDS011;8478;49.208;8.806;2023-08-17T00:22:26;5.70;;;5.20;;
2049;SDS011;8478;49.208;8.806;2023-08-17T00:24:51;6.97;;;6.57;;
2049;SDS011;8478;49.208;8.806;2023-08-17T00:27:17;7.50;;;7.00;;
2049;SDS011;8478;49.208;8.806;2023-08-17T00:29:42;6.90;;;6.50;;
2049;SDS011;8478;49.208;8.806;2023-08-17T00:32:08;7.13;;;6.63;;
2049;SDS011;8478;49.208;8.806;2023-08-17T00:34:34;7.87;;;7.27;;
2049;SDS011;8478;49.208;8.806;2023-08-17T00:36:59;7.23;;;6.83;;
2049;SDS011;8478;49.208;8.806;2023-08-17T00:39:25;7.00;;;6.60;;
2049;SDS011;8478;49.208;8.806;2023-08-17T00:41:51;6.87;;;6.47;;
2049;SDS011;8478;49.208;8.806;2023-08-17T00:44:17;7.10;;;6.70;;
2049;SDS011;8478;49.208;8.806;2023-08-17T00:46:42;6.40;;;6.00;;
2049;SDS011;8478;49.208;8.806;2023-08-17T00:49:08;6.80;;;6.50;;
2049;SDS011;8478;49.208;8.806;2023-08-17T00:51:35;7.27;;;6.67;;
2049;SDS011;8478;49.208;8.806;2023-08-17T00:54:01;7.00;;;6.60;;
2049;SDS011;8478;49.208;8.806;2023-08-17T00:56:27;7.03;;;6.53;;
2049;SDS011;8478;49.208;8.806;2023-08-17T00:58:54;6.83;;;6.43;;
2049;SDS011;8478;49.208;8.806;2023-08-17T01:01:20;6.97;;;6.47;;
2049;SDS011;8478;49.208;8.806;2023-08-17T01:03:47;6.97;;;6.57;;
2049;SDS011;8478;49.208;8.806;2023-08-17T01:06:12;7.10;;;6.70;;
2049;SDS011;8478;49.208;8.806;2023-08-17T01:08:38;7.43;;;6.93;;
2049;SDS011;8478;49.208;8.806;2023-08-17T01:11:13;7.33;;;6.83;;
2049;SDS011;8478;49.208;8.806;2023-08-17T01:16:29;7.00;;;6.63;;
2049;SDS011;8478;49.208;8.806;2023-08-17T01:18:59;6.37;;;5.87;;
2049;SDS011;8478;49.208;8.806;2023-08-17T01:21:29;6.73;;;6.43;;
2049;SDS011;8478;49.208;8.806;2023-08-17T01:24:03;7.57;;;7.00;;
2049;SDS011;8478;49.208;8.806;2023-08-17T01:26:28;6.93;;;6.50;;
2049;SDS011;8478;49.208;8.806;2023-08-17T01:28:54;7.57;;;7.10;;
2049;SDS011;8478;49.208;8.806;2023-08-17T01:31:25;6.40;;;6.10;;
2049;SDS011;8478;49.208;8.806;2023-08-17T01:34:02;6.77;;;6.30;;
2049;SDS011;8478;49.208;8.806;2023-08-17T01:36:33;7.10;;;6.70;;
2049;SDS011;8478;49.208;8.806;2023-08-17T01:39:04;6.20;;;5.80;;
2049;SDS011;8478;49.208;8.806;2023-08-17T01:41:32;6.93;;;6.43;;
2049;SDS011;8478;49.208;8.806;2023-08-17T01:43:58;6.80;;;6.40;;
2049;SDS011;8478;49.208;8.806;2023-08-17T01:46:30;7.37;;;6.90;;
2049;SDS011;8478;49.208;8.806;2023-08-17T01:48:58;8.07;;;7.67;;
2049;SDS011;8478;49.208;8.806;2023-08-17T01:51:24;6.60;;;6.20;;
2049;SDS011;8478;49.208;8.806;2023-08-17T01:53:50;6.20;;;5.70;;
2049;SDS011;8478;49.208;8.806;2023-08-17T01:56:16;7.13;;;6.73;;
2049;SDS011;8478;49.208;8.806;2023-08-17T01:58:42;7.50;;;6.90;;
2049;SDS011;8478;49.208;8.806;2023-08-17T02:01:08;12.63;;;7.03;;
2049;SDS011;8478;49.208;8.806;2023-08-17T02:03:34;8.27;;;7.53;;
2049;SDS011;8478;49.208;8.806;2023-08-17T02:06:00;7.50;;;6.80;;
2049;SDS011;8478;49.208;8.806;2023-08-17T02:08:26;9.23;;;7.30;;
2049;SDS011;8478;49.208;8.806;2023-08-17T02:10:51;7.37;;;6.83;;
2049;SDS011;8478;49.208;8.806;2023-08-17T02:13:17;6.70;;;6.20;;
2049;SDS011;8478;49.208;8.806;2023-08-17T02:15:43;7.10;;;6.53;;
2049;SDS011;8478;49.208;8.806;2023-08-17T02:18:09;9.57;;;7.50;;
2049;SDS011;8478;49.208;8.806;2023-08-17T02:20:35;5.22;;;4.82;;
2049;SDS011;8478;49.208;8.806;2023-08-17T02:23:01;7.53;;;6.70;;
2049;SDS011;8478;49.208;8.806;2023-08-17T02:25:27;7.30;;;6.63;;
2049;SDS011;8478;49.208;8.806;2023-08-17T02:27:59;10.43;;;6.20;;
2049;SDS011;8478;49.208;8.806;2023-08-17T02:30:25;6.73;;;6.20;;
2049;SDS011;8478;49.208;8.806;2023-08-17T02:32:51;5.70;;;5.40;;
2049;SDS011;8478;49.208;8.806;2023-08-17T02:35:16;6.93;;;6.43;;
2049;SDS011;8478;49.208;8.806;2023-08-17T02:37:42;6.87;;;6.40;;
2049;SDS011;8478;49.208;8.806;2023-08-17T02:40:08;7.00;;;6.50;;
2049;SDS011;8478;49.208;8.806;2023-08-17T02:42:34;6.33;;;6.00;;
2049;SDS011;8478;49.208;8.806;2023-08-17T02:44:59;6.70;;;6.40;;
2049;SDS011;8478;49.208;8.806;2023-08-17T02:47:25;6.00;;;5.60;;
2049;SDS011;8478;49.208;8.806;2023-08-17T02:49:51;5.43;;;5.13;;
2049;SDS011;8478;49.208;8.806;2023-08-17T02:52:16;6.07;;;5.67;;
2049;SDS011;8478;49.208;8.806;2023-08-17T02:54:42;6.30;;;5.87;;
2049;SDS011;8478;49.208;8.806;2023-08-17T02:57:08;6.13;;;5.83;;
2049;SDS011;8478;49.208;8.806;2023-08-17T02:59:33;6.70;;;6.30;;
2049;SDS011;8478;49.208;8.806;2023-08-17T03:01:59;6.30;;;6.00;;
2049;SDS011;8478;49.208;8.806;2023-08-17T03:04:24;6.57;;;6.07;;
2049;SDS011;8478;49.208;8.806;2023-08-17T03:06:50;5.50;;;5.30;;
2049;SDS011;8478;49.208;8.806;2023-08-17T03:09:16;6.00;;;5.70;;
2049;SDS011;8478;49.208;8.806;2023-08-17T03:11:41;6.87;;;6.30;;
2049;SDS011;8478;49.208;8.806;2023-08-17T03:14:07;5.05;;;4.60;;
2049;SDS011;8478;49.208;8.806;2023-08-17T03:16:33;6.37;;;6.07;;
2049;SDS011;8478;49.208;8.806;2023-08-17T03:18:58;6.10;;;5.77;;
2049;SDS011;8478;49.208;8.806;2023-08-17T03:21:24;6.23;;;5.93;;
2049;SDS011;8478;49.208;8.806;2023-08-17T03:23:50;6.63;;;6.33;;
2049;SDS011;8478;49.208;8.806;2023-08-17T03:26:17;6.43;;;5.93;;
2049;SDS011;8478;49.208;8.806;2023-08-17T03:28:42;4.70;;;4.40;;
2049;SDS011;8478;49.208;8.806;2023-08-17T03:31:08;6.17;;;5.67;;
2049;SDS011;8478;49.208;8.806;2023-08-17T03:33:35;6.17;;;5.70;;
2049;SDS011;8478;49.208;8.806;2023-08-17T03:36:01;6.40;;;6.10;;
2049;SDS011;8478;49.208;8.806;2023-08-17T03:38:27;5.77;;;5.27;;
2049;SDS011;8478;49.208;8.806;2023-08-17T03:40:53;4.17;;;3.90;;
2049;SDS011;8478;49.208;8.806;2023-08-17T03:43:18;5.93;;;5.60;;
2049;SDS011;8478;49.208;8.806;2023-08-17T03:45:44;5.70;;;5.40;;
2049;SDS011;8478;49.208;8.806;2023-08-17T03:48:10;6.63;;;6.27;;
2049;SDS011;8478;49.208;8.806;2023-08-17T03:50:35;6.10;;;5.73;;
2049;SDS011;8478;49.208;8.806;2023-08-17T03:53:01;5.00;;;4.70;;
2049;SDS011;8478;49.208;8.806;2023-08-17T03:55:27;6.77;;;6.47;;
2049;SDS011;8478;49.208;8.806;2023-08-17T03:57:52;7.43;;;6.90;;
2049;SDS011;8478;49.208;8.806;2023-08-17T04:00:18;6.30;;;6.00;;
2049;SDS011;8478;49.208;8.806;2023-08-17T04:02:44;6.33;;;6.03;;
2049;SDS011;8478;49.208;8.806;2023-08-17T04:05:09;4.85;;;4.60;;
2049;SDS011;8478;49.208;8.806;2023-08-17T04:07:35;6.87;;;6.57;;
2049;SDS011;8478;49.208;8.806;2023-08-17T04:10:02;7.17;;;6.73;;
2049;SDS011;8478;49.208;8.806;2023-08-17T04:12:28;7.47;;;6.97;;
2049;SDS011;8478;49.208;8.806;2023-08-17T04:14:53;6.40;;;6.10;;
2049;SDS011;8478;49.208;8.806;2023-08-17T04:17:19;6.20;;;5.87;;
2049;SDS011;8478;49.208;8.806;2023-08-17T04:19:46;6.60;;;6.30;;
2049;SDS011;8478;49.208;8.806;2023-08-17T04:22:11;6.33;;;6.00;;
2049;SDS011;8478;49.208;8.806;2023-08-17T04:24:37;6.60;;;6.00;;
2049;SDS011;8478;49.208;8.806;2023-08-17T04:27:03;6.30;;;6.00;;
2049;SDS011;8478;49.208;8.806;2023-08-17T04:29:30;6.30;;;6.00;;
2049;SDS011;8478;49.208;8.806;2023-08-17T04:31:56;7.00;;;6.60;;
2049;SDS011;8478;49.208;8.806;2023-08-17T04:34:22;6.90;;;6.47;;
2049;SDS011;8478;49.208;8.806;2023-08-17T04:36:48;6.73;;;6.43;;
2049;SDS011;8478;49.208;8.806;2023-08-17T04:39:14;5.60;;;5.40;;
2049;SDS011;8478;49.208;8.806;2023-08-17T04:41:39;6.47;;;5.97;;
2049;SDS011;8478;49.208;8.806;2023-08-17T04:44:05;5.83;;;5.33;;
2049;SDS011;8478;49.208;8.806;2023-08-17T04:46:31;6.10;;;5.80;;
2049;SDS011;8478;49.208;8.806;2023-08-17T04:48:56;5.80;;;5.30;;
2049;SDS011;8478;49.208;8.806;2023-08-17T04:51:22;6.50;;;6.10;;
2049;SDS011;8478;49.208;8.806;2023-08-17T04:53:48;6.23;;;5.80;;
2049;SDS011;8478;49.208;8.806;2023-08-17T04:56:13;6.13;;;5.63;;
2049;SDS011;8478;49.208;8.806;2023-08-17T04:58:39;6.00;;;5.70;;
2049;SDS011;8478;49.208;8.806;2023-08-17T05:01:04;6.30;;;6.00;;
2049;SDS011;8478;49.208;8.806;2023-08-17T05:03:30;6.77;;;6.47;;
2049;SDS011;8478;49.208;8.806;2023-08-17T05:05:56;6.80;;;6.20;;
2049;SDS011;8478;49.208;8.806;2023-08-17T05:08:21;7.50;;;7.20;;
2049;SDS011;8478;49.208;8.806;2023-08-17T05:10:48;7.87;;;7.47;;
2049;SDS011;8478;49.208;8.806;2023-08-17T05:13:14;7.27;;;6.87;;
2049;SDS011;8478;49.208;8.806;2023-08-17T05:15:39;7.17;;;6.77;;
2049;SDS011;8478;49.208;8.806;2023-08-17T05:18:05;7.43;;;6.93;;
2049;SDS011;8478;49.208;8.806;2023-08-17T05:20:31;7.40;;;6.90;;
2049;SDS011;8478;49.208;8.806;2023-08-17T05:22:57;5.80;;;5.50;;
2049;SDS011;8478;49.208;8.806;2023-08-17T05:25:22;6.67;;;6.37;;
2049;SDS011;8478;49.208;8.806;2023-08-17T05:27:48;6.93;;;6.63;;
2049;SDS011;8478;49.208;8.806;2023-08-17T05:30:15;7.30;;;6.90;;
2049;SDS011;8478;49.208;8.806;2023-08-17T05:32:41;7.07;;;6.77;;
2049;SDS011;8478;49.208;8.806;2023-08-17T05:35:06;7.20;;;6.80;;
2049;SDS011;8478;49.208;8.806;2023-08-17T05:37:32;5.65;;;5.30;;
2049;SDS011;8478;49.208;8.806;2023-08-17T05:39:58;7.50;;;7.20;;
2049;SDS011;8478;49.208;8.806;2023-08-17T05:42:24;6.87;;;6.57;;
2049;SDS011;8478;49.208;8.806;2023-08-17T05:44:49;6.60;;;6.23;;
2049;SDS011;8478;49.208;8.806;2023-08-17T05:47:15;5.93;;;5.60;;
2049;SDS011;8478;49.208;8.806;2023-08-17T05:49:43;6.50;;;6.17;;
2049;SDS011;8478;49.208;8.806;2023-08-17T05:52:09;6.13;;;5.93;;
2049;SDS011;8478;49.208;8.806;2023-08-17T05:54:34;7.57;;;7.27;;
2049;SDS011;8478;49.208;8.806;2023-08-17T05:57:00;7.17;;;6.77;;
2049;SDS011;8478;49.208;8.806;2023-08-17T05:59:26;6.80;;;6.50;;
2049;SDS011;8478;49.208;8.806;2023-08-17T06:01:52;7.40;;;7.10;;
2049;SDS011;8478;49.208;8.806;2023-08-17T06:04:17;7.30;;;6.90;;
2049;SDS011;8478;49.208;8.806;2023-08-17T06:06:44;6.70;;;6.40;;
2049;SDS011;8478;49.208;8.806;2023-08-17T06:09:10;7.20;;;6.80;;
2049;SDS011;8478;49.208;8.806;2023-08-17T06:11:36;7.03;;;6.73;;
2049;SDS011;8478;49.208;8.806;2023-08-17T06:14:01;6.50;;;6.10;;
2049;SDS011;8478;49.208;8.806;2023-08-17T06:16:27;7.07;;;6.77;;
2049;SDS011;8478;49.208;8.806;2023-08-17T06:18:53;7.03;;;6.73;;
2049;SDS011;8478;49.208;8.806;2023-08-17T06:21:18;6.70;;;6.30;;
2049;SDS011;8478;49.208;8.806;2023-08-17T06:23:44;6.97;;;6.57;;
2049;SDS011;8478;49.208;8.806;2023-08-17T06:26:10;6.93;;;6.60;;
2049;SDS011;8478;49.208;8.806;2023-08-17T06:28:35;7.00;;;6.70;;
2049;SDS011;8478;49.208;8.806;2023-08-17T06:31:01;7.20;;;6.90;;
2049;SDS011;8478;49.208;8.806;2023-08-17T06:33:27;7.70;;;7.40;;
2049;SDS011;8478;49.208;8.806;2023-08-17T06:35:52;7.87;;;7.47;;
2049;SDS011;8478;49.208;8.806;2023-08-17T06:38:18;7.67;;;7.37;;
2049;SDS011;8478;49.208;8.806;2023-08-17T06:40:45;7.53;;;7.10;;
2049;SDS011;8478;49.208;8.806;2023-08-17T06:43:11;7.40;;;7.10;;
2049;SDS011;8478;49.208;8.806;2023-08-17T06:45:37;6.73;;;6.37;;
2049;SDS011;8478;49.208;8.806;2023-08-17T06:48:03;7.63;;;7.27;;
2049;SDS011;8478;49.208;8.806;2023-08-17T06:50:28;6.67;;;6.37;;
2049;SDS011;8478;49.208;8.806;2023-08-17T06:52:54;7.23;;;6.87;;
2049;SDS011;8478;49.208;8.806;2023-08-17T06:55:20;7.63;;;7.13;;
2049;SDS011;8478;49.208;8.806;2023-08-17T06:57:46;6.80;;;6.40;;
2049;SDS011;8478;49.208;8.806;2023-08-17T07:00:14;7.30;;;6.93;;
2049;SDS011;8478;49.208;8.806;2023-08-17T07:02:40;7.37;;;7.07;;
2049;SDS011;8478;49.208;8.806;2023-08-17T07:05:06;5.40;;;5.00;;
2049;SDS011;8478;49.208;8.806;2023-08-17T07:07:33;7.70;;;7.30;;
2049;SDS011;8478;49.208;8.806;2023-08-17T07:09:58;7.43;;;7.00;;
2049;SDS011;8478;49.208;8.806;2023-08-17T07:12:24;8.10;;;7.60;;
2049;SDS011;8478;49.208;8.806;2023-08-17T07:14:50;6.97;;;6.67;;
2049;SDS011;8478;49.208;8.806;2023-08-17T07:17:16;7.00;;;6.70;;
2049;SDS011;8478;49.208;8.806;2023-08-17T07:19:42;7.20;;;6.90;;
2049;SDS011;8478;49.208;8.806;2023-08-17T07:22:07;7.27;;;6.87;;
2049;SDS011;8478;49.208;8.806;2023-08-17T07:24:33;6.50;;;6.20;;
2049;SDS011;8478;49.208;8.806;2023-08-17T07:26:59;6.60;;;6.30;;
2049;SDS011;8478;49.208;8.806;2023-08-17T07:29:25;6.70;;;6.30;;
2049;SDS011;8478;49.208;8.806;2023-08-17T07:31:50;6.60;;;6.30;;
2049;SDS011;8478;49.208;8.806;2023-08-17T07:34:16;6.53;;;6.23;;
2049;SDS011;8478;49.208;8.806;2023-08-17T07:36:42;6.40;;;6.10;;
2049;SDS011;8478;49.208;8.806;2023-08-17T07:39:07;6.53;;;6.23;;
2049;SDS011;8478;49.208;8.806;2023-08-17T07:41:33;6.93;;;6.63;;
2049;SDS011;8478;49.208;8.806;2023-08-17T07:43:59;6.13;;;5.83;;
2049;SDS011;8478;49.208;8.806;2023-08-17T07:46:24;6.77;;;6.47;;
2049;SDS011;8478;49.208;8.806;2023-08-17T07:48:50;7.60;;;7.20;;
2049;SDS011;8478;49.208;8.806;2023-08-17T07:51:16;7.17;;;6.77;;
2049;SDS011;8478;49.208;8.806;2023-08-17T07:53:41;6.60;;;6.30;;
2049;SDS011;8478;49.208;8.806;2023-08-17T07:56:07;7.00;;;6.70;;
2049;SDS011;8478;49.208;8.806;2023-08-17T07:58:33;6.10;;;5.80;;
2049;SDS011;8478;49.208;8.806;2023-08-17T08:00:59;7.33;;;6.93;;
2049;SDS011;8478;49.208;8.806;2023-08-17T08:03:24;7.70;;;7.30;;
2049;SDS011;8478;49.208;8.806;2023-08-17T08:05:50;8.27;;;7.77;;
2049;SDS011;8478;49.208;8.806;2023-08-17T08:08:16;6.82;;;6.43;;
2049;SDS011;8478;49.208;8.806;2023-08-17T08:10:42;8.40;;;7.90;;
2049;SDS011;8478;49.208;8.806;2023-08-17T08:13:09;7.03;;;6.60;;
2049;SDS011;8478;49.208;8.806;2023-08-17T08:15:34;8.90;;;8.37;;
2049;SDS011;8478;49.208;8.806;2023-08-17T08:18:00;8.50;;;8.10;;
2049;SDS011;8478;49.208;8.806;2023-08-17T08:20:25;8.23;;;7.83;;
2049;SDS011;8478;49.208;8.806;2023-08-17T08:22:51;8.40;;;8.00;;
2049;SDS011;8478;49.208;8.806;2023-08-17T08:25:17;8.50;;;8.03;;
2049;SDS011;8478;49.208;8.806;2023-08-17T08:27:42;9.17;;;8.67;;
2049;SDS011;8478;49.208;8.806;2023-08-17T08:30:08;9.10;;;8.60;;
2049;SDS011;8478;49.208;8.806;2023-08-17T08:32:34;8.80;;;8.40;;
2049;SDS011;8478;49.208;8.806;2023-08-17T08:35:00;9.00;;;8.50;;
2049;SDS011;8478;49.208;8.806;2023-08-17T08:37:27;9.27;;;8.77;;
2049;SDS011;8478;49.208;8.806;2023-08-17T08:39:53;9.30;;;8.90;;
2049;SDS011;8478;49.208;8.806;2023-08-17T08:42:20;9.77;;;9.27;;
2049;SDS011;8478;49.208;8.806;2023-08-17T08:44:46;10.37;;;9.77;;
2049;SDS011;8478;49.208;8.806;2023-08-17T08:47:13;10.73;;;10.10;;
2049;SDS011;8478;49.208;8.806;2023-08-17T08:49:39;11.07;;;10.50;;
2049;SDS011;8478;49.208;8.806;2023-08-17T08:52:13;10.20;;;9.60;;
2049;SDS011;8478;49.208;8.806;2023-08-17T08:54:44;10.77;;;10.17;;
2049;SDS011;8478;49.208;8.806;2023-08-17T08:57:14;10.63;;;9.77;;
2049;SDS011;8478;49.208;8.806;2023-08-17T08:59:42;9.50;;;9.00;;
2049;SDS011;8478;49.208;8.806;2023-08-17T09:02:12;9.73;;;9.23;;
2049;SDS011;8478;49.208;8.806;2023-08-17T09:04:40;10.30;;;9.80;;
2049;SDS011;8478;49.208;8.806;2023-08-17T09:07:06;10.50;;;10.00;;
2049;SDS011;8478;49.208;8.806;2023-08-17T09:09:33;10.13;;;9.63;;
2049;SDS011;8478;49.208;8.806;2023-08-17T09:12:00;9.13;;;8.55;;
2049;SDS011;8478;49.208;8.806;2023-08-17T09:14:26;10.40;;;9.80;;
2049;SDS011;8478;49.208;8.806;2023-08-17T09:16:51;10.80;;;10.20;;
2049;SDS011;8478;49.208;8.806;2023-08-17T09:19:18;9.57;;;8.87;;
2049;SDS011;8478;49.208;8.806;2023-08-17T09:21:44;9.00;;;8.60;;
2049;SDS011;8478;49.208;8.806;2023-08-17T09:24:09;10.37;;;9.77;;
2049;SDS011;8478;49.208;8.806;2023-08-17T09:26:37;10.30;;;9.80;;
2049;SDS011;8478;49.208;8.806;2023-08-17T09:29:15;9.53;;;8.93;;
2049;SDS011;8478;49.208;8.806;2023-08-17T09:31:43;10.43;;;9.83;;
2049;SDS011;8478;49.208;8.806;2023-08-17T09:34:08;10.47;;;9.97;;
2049;SDS011;8478;49.208;8.806;2023-08-17T09:36:38;10.00;;;9.50;;
2049;SDS011;8478;49.208;8.806;2023-08-17T09:39:04;9.97;;;9.37;;
2049;SDS011;8478;49.208;8.806;2023-08-17T09:41:30;8.80;;;8.30;;
2049;SDS011;8478;49.208;8.806;2023-08-17T09:44:02;9.17;;;8.73;;
2049;SDS011;8478;49.208;8.806;2023-08-17T09:46:29;10.50;;;10.00;;
2049;SDS011;8478;49.208;8.806;2023-08-17T09:48:54;9.33;;;8.83;;
2049;SDS011;8478;49.208;8.806;2023-08-17T09:51:20;9.40;;;8.90;;
2049;SDS011;8478;49.208;8.806;2023-08-17T09:53:51;10.20;;;9.70;;
2049;SDS011;8478;49.208;8.806;2023-08-17T09:56:21;9.90;;;9.40;;
2049;SDS011;8478;49.208;8.806;2023-08-17T09:58:48;9.80;;;9.30;;
2049;SDS011;8478;49.208;8.806;2023-08-17T10:01:14;9.97;;;9.47;;
2049;SDS011;8478;49.208;8.806;2023-08-17T10:03:43;10.37;;;9.80;;
2049;SDS011;8478;49.208;8.806;2023-08-17T10:06:12;11.40;;;10.70;;
2049;SDS011;8478;49.208;8.806;2023-08-17T10:08:42;10.00;;;9.50;;
2049;SDS011;8478;49.208;8.806;2023-08-17T10:11:10;10.50;;;9.90;;
2049;SDS011;8478;49.208;8.806;2023-08-17T10:13:39;11.20;;;10.60;;
2049;SDS011;8478;49.208;8.806;2023-08-17T10:16:39;10.80;;;10.10;;
2049;SDS011;8478;49.208;8.806;2023-08-17T10:19:18;11.60;;;11.00;;
2049;SDS011;8478;49.208;8.806;2023-08-17T10:22:06;11.63;;;10.93;;
2049;SDS011;8478;49.208;8.806;2023-08-17T10:24:46;11.97;;;11.27;;
2049;SDS011;8478;49.208;8.806;2023-08-17T10:27:14;12.63;;;11.93;;
2049;SDS011;8478;49.208;8.806;2023-08-17T10:29:41;13.80;;;13.00;;
2049;SDS011;8478;49.208;8.806;2023-08-17T10:32:08;12.87;;;12.17;;
2049;SDS011;8478;49.208;8.806;2023-08-17T10:34:36;12.63;;;11.83;;
2049;SDS011;8478;49.208;8.806;2023-08-17T10:37:03;13.60;;;12.80;;
2049;SDS011;8478;49.208;8.806;2023-08-17T10:39:30;12.70;;;12.03;;
2049;SDS011;8478;49.208;8.806;2023-08-17T10:41:57;14.13;;;13.33;;
2049;SDS011;8478;49.208;8.806;2023-08-17T10:44:56;12.60;;;12.00;;
2049;SDS011;8478;49.208;8.806;2023-08-17T10:47:36;13.57;;;12.80;;
2049;SDS011;8478;49.208;8.806;2023-08-17T10:50:03;12.37;;;11.77;;
2049;SDS011;8478;49.208;8.806;2023-08-17T10:52:56;13.70;;;12.90;;
2049;SDS011;8478;49.208;8.806;2023-08-17T10:55:37;11.30;;;10.60;;
2049;SDS011;8478;49.208;8.806;2023-08-17T10:58:07;11.67;;;11.00;;
2049;SDS011;8478;49.208;8.806;2023-08-17T11:00:33;13.60;;;12.80;;
2049;SDS011;8478;49.208;8.806;2023-08-17T11:03:17;12.30;;;11.60;;
2049;SDS011;8478;49.208;8.806;2023-08-17T11:05:45;12.77;;;12.07;;
2049;SDS011;8478;49.208;8.806;2023-08-17T11:11:11;13.57;;;12.87;;
2049;SDS011;8478;49.208;8.806;2023-08-17T11:13:39;13.13;;;12.33;;
2049;SDS011;8478;49.208;8.806;2023-08-17T11:16:06;14.67;;;13.87;;
2049;SDS011;8478;49.208;8.806;2023-08-17T11:18:33;14.33;;;13.43;;
2049;SDS011;8478;49.208;8.806;2023-08-17T11:21:00;13.43;;;12.63;;
2049;SDS011;8478;49.208;8.806;2023-08-17T11:23:31;14.37;;;13.60;;
2049;SDS011;8478;49.208;8.806;2023-08-17T11:25:57;15.00;;;14.20;;
2049;SDS011;8478;49.208;8.806;2023-08-17T11:28:23;14.10;;;13.30;;
2049;SDS011;8478;49.208;8.806;2023-08-17T11:30:58;13.63;;;12.83;;
2049;SDS011;8478;49.208;8.806;2023-08-17T11:33:26;14.07;;;13.13;;
2049;SDS011;8478;49.208;8.806;2023-08-17T11:35:55;14.53;;;13.63;;
2049;SDS011;8478;49.208;8.806;2023-08-17T11:38:21;14.70;;;13.70;;
2049;SDS011;8478;49.208;8.806;2023-08-17T11:40:47;13.87;;;13.10;;
2049;SDS011;8478;49.208;8.806;2023-08-17T11:43:16;15.13;;;14.37;;
2049;SDS011;8478;49.208;8.806;2023-08-17T11:45:43;12.13;;;11.32;;
2049;SDS011;8478;49.208;8.806;2023-08-17T11:48:08;13.67;;;12.87;;
2049;SDS011;8478;49.208;8.806;2023-08-17T11:50:34;12.80;;;12.10;;
2049;SDS011;8478;49.208;8.806;2023-08-17T11:53:00;13.57;;;12.77;;
2049;SDS011;8478;49.208;8.806;2023-08-17T11:55:26;13.37;;;12.57;;
2049;SDS011;8478;49.208;8.806;2023-08-17T11:57:52;13.00;;;12.20;;
2049;SDS011;8478;49.208;8.806;2023-08-17T12:00:21;11.67;;;10.97;;
2049;SDS011;8478;49.208;8.806;2023-08-17T12:02:51;13.47;;;12.77;;
2049;SDS011;8478;49.208;8.806;2023-08-17T12:05:24;14.33;;;13.53;;
2049;SDS011;8478;49.208;8.806;2023-08-17T12:07:52;13.50;;;12.80;;
2049;SDS011;8478;49.208;8.806;2023-08-17T12:10:19;13.67;;;12.87;;
2049;SDS011;8478;49.208;8.806;2023-08-17T12:12:46;13.60;;;12.90;;
2049;SDS011;8478;49.208;8.806;2023-08-17T12:15:12;14.50;;;13.50;;
2049;SDS011;8478;49.208;8.806;2023-08-17T12:17:45;13.70;;;13.00;;
2049;SDS011;8478;49.208;8.806;2023-08-17T12:20:18;13.20;;;12.40;;
2049;SDS011;8478;49.208;8.806;2023-08-17T12:22:45;14.40;;;13.60;;
2049;SDS011;8478;49.208;8.806;2023-08-17T12:25:12;14.27;;;13.37;;
2049;SDS011;8478;49.208;8.806;2023-08-17T12:27:38;13.70;;;12.90;;
2049;SDS011;8478;49.208;8.806;2023-08-17T12:30:04;13.00;;;12.20;;
2049;SDS011;8478;49.208;8.806;2023-08-17T12:32:36;13.40;;;12.70;;
2049;SDS011;8478;49.208;8.806;2023-08-17T12:35:02;12.30;;;11.70;;
2049;SDS011;8478;49.208;8.806;2023-08-17T12:37:28;13.00;;;12.23;;
2049;SDS011;8478;49.208;8.806;2023-08-17T12:39:54;12.17;;;11.43;;
2049;SDS011;8478;49.208;8.806;2023-08-17T12:42:20;13.40;;;12.70;;
2049;SDS011;8478;49.208;8.806;2023-08-17T12:44:45;12.90;;;12.20;;
2049;SDS011;8478;49.208;8.806;2023-08-17T12:47:11;14.10;;;13.40;;
2049;SDS011;8478;49.208;8.806;2023-08-17T12:49:37;14.27;;;13.37;;
2049;SDS011;8478;49.208;8.806;2023-08-17T12:52:02;13.50;;;12.70;;
2049;SDS011;8478;49.208;8.806;2023-08-17T12:54:28;14.97;;;14.17;;
2049;SDS011;8478;49.208;8.806;2023-08-17T12:56:54;15.07;;;14.17;;
2049;SDS011;8478;49.208;8.806;2023-08-17T12:59:20;14.67;;;13.57;;
2049;SDS011;8478;49.208;8.806;2023-08-17T13:01:45;14.03;;;13.20;;
2049;SDS011;8478;49.208;8.806;2023-08-17T13:04:11;16.10;;;15.00;;
2049;SDS011;8478;49.208;8.806;2023-08-17T13:06:37;16.80;;;15.80;;
2049;SDS011;8478;49.208;8.806;2023-08-17T13:09:03;15.70;;;14.70;;
2049;SDS011;8478;49.208;8.806;2023-08-17T13:11:29;16.30;;;15.10;;
2049;SDS011;8478;49.208;8.806;2023-08-17T13:13:55;16.97;;;15.97;;
2049;SDS011;8478;49.208;8.806;2023-08-17T13:16:21;18.70;;;17.47;;
2049;SDS011;8478;49.208;8.806;2023-08-17T13:18:47;18.20;;;17.10;;
2049;SDS011;8478;49.208;8.806;2023-08-17T13:21:13;17.13;;;16.13;;
2049;SDS011;8478;49.208;8.806;2023-08-17T13:23:40;16.80;;;15.60;;
2049;SDS011;8478;49.208;8.806;2023-08-17T13:26:06;16.30;;;15.40;;
2049;SDS011;8478;49.208;8.806;2023-08-17T13:28:32;17.40;;;16.40;;
2049;SDS011;8478;49.208;8.806;2023-08-17T13:30:58;19.67;;;18.37;;
2049;SDS011;8478;49.208;8.806;2023-08-17T13:33:23;18.60;;;17.53;;
2049;SDS011;8478;49.208;8.806;2023-08-17T13:35:49;18.23;;;17.00;;
2049;SDS011;8478;49.208;8.806;2023-08-17T13:38:16;18.57;;;17.47;;
2049;SDS011;8478;49.208;8.806;2023-08-17T13:40:42;19.63;;;18.37;;
2049;SDS011;8478;49.208;8.806;2023-08-17T13:43:07;19.10;;;17.90;;
2049;SDS011;8478;49.208;8.806;2023-08-17T13:45:37;19.70;;;18.60;;
2049;SDS011;8478;49.208;8.806;2023-08-17T13:48:04;19.13;;;17.93;;
2049;SDS011;8478;49.208;8.806;2023-08-17T13:50:37;18.77;;;17.57;;
2049;SDS011;8478;49.208;8.806;2023-08-17T13:53:03;18.60;;;17.50;;
2049;SDS011;8478;49.208;8.806;2023-08-17T13:55:29;17.83;;;16.60;;
2049;SDS011;8478;49.208;8.806;2023-08-17T13:57:55;19.67;;;18.47;;
2049;SDS011;8478;49.208;8.806;2023-08-17T14:00:21;18.43;;;17.43;;
2049;SDS011;8478;49.208;8.806;2023-08-17T14:02:47;18.50;;;17.37;;
2049;SDS011;8478;49.208;8.806;2023-08-17T14:05:13;18.10;;;16.90;;
2049;SDS011;8478;49.208;8.806;2023-08-17T14:07:39;18.27;;;17.03;;
2049;SDS011;8478;49.208;8.806;2023-08-17T14:10:05;17.17;;;16.17;;
2049;SDS011;8478;49.208;8.806;2023-08-17T14:12:31;20.13;;;18.83;;
2049;SDS011;8478;49.208;8.806;2023-08-17T14:14:56;18.97;;;17.67;;
2049;SDS011;8478;49.208;8.806;2023-08-17T14:17:22;17.87;;;16.80;;
2049;SDS011;8478;49.208;8.806;2023-08-17T14:19:48;17.40;;;16.40;;
2049;SDS011;8478;49.208;8.806;2023-08-17T14:22:13;18.50;;;17.30;;
2049;SDS011;8478;49.208;8.806;2023-08-17T14:24:39;16.57;;;15.67;;
2049;SDS011;8478;49.208;8.806;2023-08-17T14:27:05;17.63;;;16.63;;
2049;SDS011;8478;49.208;8.806;2023-08-17T14:29:30;18.10;;;17.03;;
2049;SDS011;8478;49.208;8.806;2023-08-17T14:31:56;17.60;;;16.50;;
2049;SDS011;8478;49.208;8.806;2023-08-17T14:34:21;16.53;;;15.63;;
2049;SDS011;8478;49.208;8.806;2023-08-17T14:36:47;17.73;;;16.73;;
2049;SDS011;8478;49.208;8.806;2023-08-17T14:39:13;17.90;;;16.70;;
2049;SDS011;8478;49.208;8.806;2023-08-17T14:41:38;17.43;;;16.33;;
2049;SDS011;8478;49.208;8.806;2023-08-17T14:44:04;17.10;;;16.10;;
2049;SDS011;8478;49.208;8.806;2023-08-17T14:46:30;17.77;;;16.57;;
2049;SDS011;8478;49.208;8.806;2023-08-17T14:48:56;15.67;;;14.57;;
2049;SDS011;8478;49.208;8.806;2023-08-17T14:51:23;16.20;;;15.37;;
2049;SDS011;8478;49.208;8.806;2023-08-17T14:53:49;17.10;;;16.10;;
2049;SDS011;8478;49.208;8.806;2023-08-17T14:56:15;16.20;;;15.20;;
2049;SDS011;8478;49.208;8.806;2023-08-17T14:58:40;14.93;;;14.13;;
2049;SDS011;8478;49.208;8.806;2023-08-17T15:01:06;15.20;;;14.20;;
2049;SDS011;8478;49.208;8.806;2023-08-17T15:03:31;15.00;;;13.93;;
2049;SDS011;8478;49.208;8.806;2023-08-17T15:05:57;15.40;;;14.50;;
2049;SDS011;8478;49.208;8.806;2023-08-17T15:08:23;14.10;;;13.30;;